sensor_id;sensor_type;location;lat;lon;timestamp;pressure;altitude;pressure_sealevel;temperature;humidity
55679;BME280;41573;51.446;-2.018;2022-12-07T00:01:29;101572.50;;;1.27;100.00
55679;BME280;41573;51.446;-2.018;2022-12-07T00:03:57;101572.53;;;1.21;100.00
55679;BME280;41573;51.446;-2.018;2022-12-07T00:06:26;101569.91;;;1.18;100.00
55679;BME280;41573;51.446;-2.018;2022-12-07T00:08:51;101563.84;;;1.13;100.00
55679;BME280;41573;51.446;-2.018;2022-12-07T00:11:22;101580.41;;;1.16;100.00
55679;BME280;41573;51.446;-2.018;2022-12-07T00:14:00;101566.50;;;1.08;100.00
55679;BME280;41573;51.446;-2.018;2022-12-07T00:16:28;101575.19;;;1.12;100.00
55679;BME280;41573;51.446;-2.018;2022-12-07T00:18:54;101578.72;;;1.09;100.00
55679;BME280;41573;51.446;-2.018;2022-12-07T00:21:26;101572.63;;;1.04;100.00
55679;BME280;41573;51.446;-2.018;2022-12-07T00:23:53;101570.91;;;1.00;100.00
55679;BME280;41573;51.446;-2.018;2022-12-07T00:26:30;101559.53;;;0.98;100.00
55679;BME280;41573;51.446;-2.018;2022-12-07T00:29:02;101556.94;;;0.90;100.00
55679;BME280;41573;51.446;-2.018;2022-12-07T00:31:30;101556.06;;;0.86;100.00
55679;BME280;41573;51.446;-2.018;2022-12-07T00:33:59;101556.97;;;0.82;100.00
55679;BME280;41573;51.446;-2.018;2022-12-07T00:36:25;101546.53;;;0.75;100.00
55679;BME280;41573;51.446;-2.018;2022-12-07T00:38:51;101541.28;;;0.72;100.00
55679;BME280;41573;51.446;-2.018;2022-12-07T00:41:20;101549.16;;;0.73;100.00
55679;BME280;41573;51.446;-2.018;2022-12-07T00:43:48;101548.28;;;0.66;100.00
55679;BME280;41573;51.446;-2.018;2022-12-07T00:46:17;101538.69;;;0.62;100.00
55679;BME280;41573;51.446;-2.018;2022-12-07T00:48:45;101548.31;;;0.62;100.00
55679;BME280;41573;51.446;-2.018;2022-12-07T00:51:12;101542.22;;;0.63;100.00
55679;BME280;41573;51.446;-2.018;2022-12-07T00:53:39;101549.19;;;0.58;100.00
55679;BME280;41573;51.446;-2.018;2022-12-07T00:56:11;101543.13;;;0.54;100.00
55679;BME280;41573;51.446;-2.018;2022-12-07T00:58:37;101542.22;;;0.54;100.00
55679;BME280;41573;51.446;-2.018;2022-12-07T01:01:05;101544.84;;;0.52;100.00
55679;BME280;41573;51.446;-2.018;2022-12-07T01:03:31;101535.25;;;0.46;100.00
55679;BME280;41573;51.446;-2.018;2022-12-07T01:05:57;101543.09;;;0.51;100.00
55679;BME280;41573;51.446;-2.018;2022-12-07T01:08:24;101539.63;;;0.52;100.00
55679;BME280;41573;51.446;-2.018;2022-12-07T01:10:57;101537.00;;;0.50;100.00
55679;BME280;41573;51.446;-2.018;2022-12-07T01:13:23;101529.16;;;0.44;100.00
55679;BME280;41573;51.446;-2.018;2022-12-07T01:15:49;101528.28;;;0.42;100.00
55679;BME280;41573;51.446;-2.018;2022-12-07T01:18:14;101527.41;;;0.42;100.00
55679;BME280;41573;51.446;-2.018;2022-12-07T02:21:52;101537.94;;;0.15;100.00
55679;BME280;41573;51.446;-2.018;2022-12-07T02:32:44;101547.56;;;0.13;100.00
55679;BME280;41573;51.446;-2.018;2022-12-07T02:40:36;101538.84;;;0.14;100.00
55679;BME280;41573;51.446;-2.018;2022-12-07T02:43:13;101533.63;;;0.13;100.00
55679;BME280;41573;51.446;-2.018;2022-12-07T02:45:44;101541.47;;;0.14;100.00
55679;BME280;41573;51.446;-2.018;2022-12-07T02:48:13;101530.09;;;0.09;100.00
55679;BME280;41573;51.446;-2.018;2022-12-07T02:50:44;101532.72;;;0.12;100.00
55679;BME280;41573;51.446;-2.018;2022-12-07T03:18:55;101528.41;;;-0.06;100.00
55679;BME280;41573;51.446;-2.018;2022-12-07T03:40:39;101510.06;;;-0.71;100.00
55679;BME280;41573;51.446;-2.018;2022-12-07T04:07:46;101492.59;;;-0.85;100.00
55679;BME280;41573;51.446;-2.018;2022-12-07T04:12:54;101492.59;;;-0.89;100.00
55679;BME280;41573;51.446;-2.018;2022-12-07T04:19:58;101495.22;;;-0.96;100.00
55679;BME280;41573;51.446;-2.018;2022-12-07T04:23:06;101501.28;;;-0.93;100.00
55679;BME280;41573;51.446;-2.018;2022-12-07T04:26:10;101499.56;;;-0.89;100.00
55679;BME280;41573;51.446;-2.018;2022-12-07T04:29:15;101500.44;;;-0.89;100.00
55679;BME280;41573;51.446;-2.018;2022-12-07T04:32:41;101503.94;;;-0.87;100.00
55679;BME280;41573;51.446;-2.018;2022-12-07T05:09:12;101493.38;;;-1.27;100.00
55679;BME280;41573;51.446;-2.018;2022-12-07T05:11:37;101489.91;;;-1.23;100.00
55679;BME280;41573;51.446;-2.018;2022-12-07T05:14:39;101500.41;;;-1.07;100.00
55679;BME280;41573;51.446;-2.018;2022-12-07T05:17:22;101494.31;;;-1.00;100.00
55679;BME280;41573;51.446;-2.018;2022-12-07T05:20:40;101494.34;;;-0.84;100.00
55679;BME280;41573;51.446;-2.018;2022-12-07T05:23:17;101493.47;;;-0.77;100.00
55679;BME280;41573;51.446;-2.018;2022-12-07T05:26:26;101487.41;;;-0.64;100.00
55679;BME280;41573;51.446;-2.018;2022-12-07T05:29:14;101489.16;;;-0.57;100.00
55679;BME280;41573;51.446;-2.018;2022-12-07T05:31:50;101494.38;;;-0.44;100.00
55679;BME280;41573;51.446;-2.018;2022-12-07T05:34:15;101495.25;;;-0.41;100.00
55679;BME280;41573;51.446;-2.018;2022-12-07T05:36:40;101499.59;;;-0.30;100.00
55679;BME280;41573;51.446;-2.018;2022-12-07T05:42:12;101490.00;;;-0.27;100.00
55679;BME280;41573;51.446;-2.018;2022-12-07T05:44:49;101496.09;;;-0.25;100.00
55679;BME280;41573;51.446;-2.018;2022-12-07T05:47:16;101495.25;;;-0.24;100.00
55679;BME280;41573;51.446;-2.018;2022-12-07T05:49:42;101495.25;;;-0.25;100.00
55679;BME280;41573;51.446;-2.018;2022-12-07T05:52:13;101498.75;;;-0.28;100.00
55679;BME280;41573;51.446;-2.018;2022-12-07T05:54:39;101490.00;;;-0.33;100.00
55679;BME280;41573;51.446;-2.018;2022-12-07T05:57:05;101486.53;;;-0.35;100.00
55679;BME280;41573;51.446;-2.018;2022-12-07T05:59:56;101486.53;;;-0.38;100.00
55679;BME280;41573;51.446;-2.018;2022-12-07T06:02:28;101486.53;;;-0.41;100.00
55679;BME280;41573;51.446;-2.018;2022-12-07T06:05:08;101479.56;;;-0.45;100.00
55679;BME280;41573;51.446;-2.018;2022-12-07T06:07:35;101481.31;;;-0.40;100.00
55679;BME280;41573;51.446;-2.018;2022-12-07T06:10:05;101478.69;;;-0.40;100.00
55679;BME280;41573;51.446;-2.018;2022-12-07T06:12:33;101474.31;;;-0.45;100.00
55679;BME280;41573;51.446;-2.018;2022-12-07T06:14:58;101479.56;;;-0.44;100.00
55679;BME280;41573;51.446;-2.018;2022-12-07T06:17:24;101479.56;;;-0.42;100.00
55679;BME280;41573;51.446;-2.018;2022-12-07T06:19:50;101483.03;;;-0.43;100.00
55679;BME280;41573;51.446;-2.018;2022-12-07T06:29:58;101494.38;;;-0.55;100.00
55679;BME280;41573;51.446;-2.018;2022-12-07T06:32:26;101487.41;;;-0.58;100.00
55679;BME280;41573;51.446;-2.018;2022-12-07T06:35:06;101487.41;;;-0.59;100.00
55679;BME280;41573;51.446;-2.018;2022-12-07T06:37:56;101486.50;;;-0.63;100.00
55679;BME280;41573;51.446;-2.018;2022-12-07T06:40:21;101480.41;;;-0.65;100.00
55679;BME280;41573;51.446;-2.018;2022-12-07T06:42:47;101472.59;;;-0.70;100.00
55679;BME280;41573;51.446;-2.018;2022-12-07T07:08:30;101475.97;;;-1.15;100.00
55679;BME280;41573;51.446;-2.018;2022-12-07T07:11:13;101477.72;;;-1.14;100.00
55679;BME280;41573;51.446;-2.018;2022-12-07T07:13:50;101477.72;;;-1.14;100.00
55679;BME280;41573;51.446;-2.018;2022-12-07T07:16:34;101465.50;;;-1.18;100.00
55679;BME280;41573;51.446;-2.018;2022-12-07T07:19:30;101466.41;;;-1.16;100.00
55679;BME280;41573;51.446;-2.018;2022-12-07T07:22:30;101459.44;;;-1.17;100.00
55679;BME280;41573;51.446;-2.018;2022-12-07T07:25:14;101465.50;;;-1.25;100.00
55679;BME280;41573;51.446;-2.018;2022-12-07T07:28:01;101475.91;;;-1.31;100.00
55679;BME280;41573;51.446;-2.018;2022-12-07T07:30:43;101481.16;;;-1.34;100.00
55679;BME280;41573;51.446;-2.018;2022-12-07T07:33:40;101486.38;;;-1.31;100.00
55679;BME280;41573;51.446;-2.018;2022-12-07T07:36:47;101478.53;;;-1.35;100.00
55679;BME280;41573;51.446;-2.018;2022-12-07T07:39:31;101480.28;;;-1.33;100.00
55679;BME280;41573;51.446;-2.018;2022-12-07T07:47:20;101481.16;;;-1.34;100.00
55679;BME280;41573;51.446;-2.018;2022-12-07T07:49:55;101480.28;;;-1.33;100.00
55679;BME280;41573;51.446;-2.018;2022-12-07T07:52:34;101479.44;;;-1.33;100.00
55679;BME280;41573;51.446;-2.018;2022-12-07T07:55:07;101478.53;;;-1.31;100.00
55679;BME280;41573;51.446;-2.018;2022-12-07T07:57:42;101481.19;;;-1.28;100.00
55679;BME280;41573;51.446;-2.018;2022-12-07T08:00:13;101479.44;;;-1.26;100.00
55679;BME280;41573;51.446;-2.018;2022-12-07T08:02:41;101484.66;;;-1.29;100.00
55679;BME280;41573;51.446;-2.018;2022-12-07T08:05:10;101481.16;;;-1.31;100.00
55679;BME280;41573;51.446;-2.018;2022-12-07T08:07:39;101492.50;;;-1.30;100.00
55679;BME280;41573;51.446;-2.018;2022-12-07T08:10:09;101486.38;;;-1.34;100.00
55679;BME280;41573;51.446;-2.018;2022-12-07T08:12:40;101478.53;;;-1.35;100.00
55679;BME280;41573;51.446;-2.018;2022-12-07T08:15:28;101491.59;;;-1.31;100.00
55679;BME280;41573;51.446;-2.018;2022-12-07T08:18:01;101501.25;;;-1.22;100.00
55679;BME280;41573;51.446;-2.018;2022-12-07T08:20:31;101507.34;;;-1.18;100.00
55679;BME280;41573;51.446;-2.018;2022-12-07T08:22:57;101496.03;;;-1.20;100.00
55679;BME280;41573;51.446;-2.018;2022-12-07T08:25:23;101496.03;;;-1.13;100.00
55679;BME280;41573;51.446;-2.018;2022-12-07T08:27:49;101499.53;;;-1.08;100.00
55679;BME280;41573;51.446;-2.018;2022-12-07T08:30:15;101507.38;;;-1.06;100.00
55679;BME280;41573;51.446;-2.018;2022-12-07T08:32:41;101519.59;;;-0.99;100.00
55679;BME280;41573;51.446;-2.018;2022-12-07T08:35:07;101510.91;;;-0.98;100.00
55679;BME280;41573;51.446;-2.018;2022-12-07T08:37:33;101509.13;;;-0.96;100.00
55679;BME280;41573;51.446;-2.018;2022-12-07T08:39:58;101512.66;;;-0.94;100.00
55679;BME280;41573;51.446;-2.018;2022-12-07T08:42:24;101508.28;;;-0.90;100.00
55679;BME280;41573;51.446;-2.018;2022-12-07T08:44:54;101506.56;;;-0.88;100.00
55679;BME280;41573;51.446;-2.018;2022-12-07T08:47:20;101503.94;;;-0.87;100.00
55679;BME280;41573;51.446;-2.018;2022-12-07T08:49:47;101504.81;;;-0.81;100.00
55679;BME280;41573;51.446;-2.018;2022-12-07T08:52:15;101501.31;;;-0.80;100.00
55679;BME280;41573;51.446;-2.018;2022-12-07T08:57:16;101510.94;;;-0.79;100.00
55679;BME280;41573;51.446;-2.018;2022-12-07T08:59:41;101498.72;;;-0.80;100.00
55679;BME280;41573;51.446;-2.018;2022-12-07T09:02:06;101503.94;;;-0.74;100.00
55679;BME280;41573;51.446;-2.018;2022-12-07T09:04:32;101502.22;;;-0.74;100.00
55679;BME280;41573;51.446;-2.018;2022-12-07T09:06:58;101500.47;;;-0.70;100.00
55679;BME280;41573;51.446;-2.018;2022-12-07T09:09:24;101489.13;;;-0.72;100.00
55679;BME280;41573;51.446;-2.018;2022-12-07T09:11:49;101496.13;;;-0.68;100.00
55679;BME280;41573;51.446;-2.018;2022-12-07T09:14:14;101500.47;;;-0.67;100.00
55679;BME280;41573;51.446;-2.018;2022-12-07T09:16:40;101498.75;;;-0.65;100.00
55679;BME280;41573;51.446;-2.018;2022-12-07T09:19:08;101501.34;;;-0.62;100.00
55679;BME280;41573;51.446;-2.018;2022-12-07T09:21:33;101487.41;;;-0.64;100.00
55679;BME280;41573;51.446;-2.018;2022-12-07T09:23:59;101497.00;;;-0.57;100.00
55679;BME280;41573;51.446;-2.018;2022-12-07T09:26:24;101497.88;;;-0.56;100.00
55679;BME280;41573;51.446;-2.018;2022-12-07T09:28:49;101497.88;;;-0.59;100.00
55679;BME280;41573;51.446;-2.018;2022-12-07T09:31:15;101489.13;;;-0.60;100.00
55679;BME280;41573;51.446;-2.018;2022-12-07T09:33:40;101495.25;;;-0.56;100.00
55679;BME280;41573;51.446;-2.018;2022-12-07T09:36:06;101497.00;;;-0.54;100.00
55679;BME280;41573;51.446;-2.018;2022-12-07T09:38:32;101489.16;;;-0.57;100.00
55679;BME280;41573;51.446;-2.018;2022-12-07T09:41:04;101490.00;;;-0.55;100.00
55679;BME280;41573;51.446;-2.018;2022-12-07T09:43:30;101503.13;;;-0.45;100.00
55679;BME280;41573;51.446;-2.018;2022-12-07T09:45:56;101491.75;;;-0.47;100.00
55679;BME280;41573;51.446;-2.018;2022-12-07T09:48:33;101494.38;;;-0.44;100.00
55679;BME280;41573;51.446;-2.018;2022-12-07T09:51:02;101497.84;;;-0.48;100.00
55679;BME280;41573;51.446;-2.018;2022-12-07T09:56:04;101494.38;;;-0.54;100.00
55679;BME280;41573;51.446;-2.018;2022-12-07T09:58:32;101496.97;;;-0.44;100.00
55679;BME280;41573;51.446;-2.018;2022-12-07T10:03:51;101506.59;;;-0.26;100.00
55679;BME280;41573;51.446;-2.018;2022-12-07T10:06:17;101499.63;;;-0.21;100.00
55679;BME280;41573;51.446;-2.018;2022-12-07T10:08:43;101507.44;;;-0.13;100.00
55679;BME280;41573;51.446;-2.018;2022-12-07T10:11:10;101489.09;;;-0.07;100.00
55679;BME280;41573;51.446;-2.018;2022-12-07T10:13:44;101493.47;;;0.00;100.00
55679;BME280;41573;51.446;-2.018;2022-12-07T10:18:48;101488.19;;;0.15;100.00
55679;BME280;41573;51.446;-2.018;2022-12-07T10:21:22;101490.78;;;0.28;100.00
55679;BME280;41573;51.446;-2.018;2022-12-07T10:24:06;101477.63;;;0.40;100.00
55679;BME280;41573;51.446;-2.018;2022-12-07T10:26:51;101484.56;;;0.54;100.00
55679;BME280;41573;51.446;-2.018;2022-12-07T10:29:21;101479.25;;;0.69;100.00
55679;BME280;41573;51.446;-2.018;2022-12-07T10:31:54;101475.75;;;0.70;100.00
55679;BME280;41573;51.446;-2.018;2022-12-07T10:36:47;101467.78;;;0.87;100.00
55679;BME280;41573;51.446;-2.018;2022-12-07T10:39:17;101461.66;;;0.93;100.00
55679;BME280;41573;51.446;-2.018;2022-12-07T10:42:04;101458.09;;;1.00;100.00
55679;BME280;41573;51.446;-2.018;2022-12-07T10:44:32;101448.44;;;1.05;100.00
55679;BME280;41573;51.446;-2.018;2022-12-07T10:47:25;101443.16;;;1.11;100.00
55679;BME280;41573;51.446;-2.018;2022-12-07T10:52:58;101433.41;;;1.26;100.00
55679;BME280;41573;51.446;-2.018;2022-12-07T10:55:50;101429.88;;;1.33;100.00
55679;BME280;41573;51.446;-2.018;2022-12-07T11:03:31;101405.16;;;1.55;100.00
55679;BME280;41573;51.446;-2.018;2022-12-07T11:08:57;101389.13;;;1.80;100.00
55679;BME280;41573;51.446;-2.018;2022-12-07T11:11:36;101381.09;;;1.96;100.00
55679;BME280;41573;51.446;-2.018;2022-12-07T11:14:06;101380.06;;;2.09;100.00
55679;BME280;41573;51.446;-2.018;2022-12-07T11:16:52;101374.59;;;2.28;100.00
55679;BME280;41573;51.446;-2.018;2022-12-07T11:19:50;101362.06;;;2.45;100.00
55679;BME280;41573;51.446;-2.018;2022-12-07T11:22:43;101360.91;;;2.65;100.00
55679;BME280;41573;51.446;-2.018;2022-12-07T11:35:49;101314.22;;;3.31;100.00
55679;BME280;41573;51.446;-2.018;2022-12-07T11:38:23;101311.44;;;3.37;100.00
55679;BME280;41573;51.446;-2.018;2022-12-07T11:40:51;101295.91;;;3.24;100.00
55679;BME280;41573;51.446;-2.018;2022-12-07T11:43:28;101278.38;;;3.23;100.00
55679;BME280;41573;51.446;-2.018;2022-12-07T11:46:07;101276.63;;;3.22;100.00
55679;BME280;41573;51.446;-2.018;2022-12-07T11:48:38;101273.00;;;3.28;100.00
55679;BME280;41573;51.446;-2.018;2022-12-07T11:51:06;101264.19;;;3.31;100.00
55679;BME280;41573;51.446;-2.018;2022-12-07T11:53:37;101264.19;;;3.31;100.00
55679;BME280;41573;51.446;-2.018;2022-12-07T11:56:13;101265.16;;;3.25;100.00
55679;BME280;41573;51.446;-2.018;2022-12-07T11:59:00;101256.38;;;3.26;100.00
55679;BME280;41573;51.446;-2.018;2022-12-07T12:06:43;101243.00;;;3.37;100.00
55679;BME280;41573;51.446;-2.018;2022-12-07T12:09:13;101239.47;;;3.38;100.00
55679;BME280;41573;51.446;-2.018;2022-12-07T12:15:04;101238.69;;;3.34;100.00
55679;BME280;41573;51.446;-2.018;2022-12-07T12:17:54;101241.16;;;3.42;100.00
55679;BME280;41573;51.446;-2.018;2022-12-07T12:21:07;101236.63;;;3.49;100.00
55679;BME280;41573;51.446;-2.018;2022-12-07T12:23:20;101236.06;;;3.33;100.00
55679;BME280;41573;51.446;-2.018;2022-12-07T12:25:54;101223.63;;;3.39;100.00
55679;BME280;41573;51.446;-2.018;2022-12-07T12:33:47;101233.97;;;3.50;100.00
55679;BME280;41573;51.446;-2.018;2022-12-07T12:44:03;101205.88;;;3.49;100.00
55679;BME280;41573;51.446;-2.018;2022-12-07T12:47:38;101205.16;;;3.41;100.00
55679;BME280;41573;51.446;-2.018;2022-12-07T12:50:15;101205.00;;;3.50;100.00
55679;BME280;41573;51.446;-2.018;2022-12-07T12:57:36;101190.28;;;3.40;100.00
55679;BME280;41573;51.446;-2.018;2022-12-07T13:02:50;101195.72;;;3.31;100.00
55679;BME280;41573;51.446;-2.018;2022-12-07T13:05:25;101191.47;;;3.25;100.00
55679;BME280;41573;51.446;-2.018;2022-12-07T13:08:05;101185.38;;;3.23;100.00
55679;BME280;41573;51.446;-2.018;2022-12-07T13:10:44;101176.53;;;3.25;100.00
55679;BME280;41573;51.446;-2.018;2022-12-07T13:15:56;101178.38;;;3.22;100.00
55679;BME280;41573;51.446;-2.018;2022-12-07T13:18:40;101165.38;;;3.13;100.00
55679;BME280;41573;51.446;-2.018;2022-12-07T13:23:57;101173.88;;;3.25;100.00
55679;BME280;41573;51.446;-2.018;2022-12-07T13:29:17;101155.34;;;3.32;100.00
55679;BME280;41573;51.446;-2.018;2022-12-07T13:31:47;101157.94;;;3.33;100.00
55679;BME280;41573;51.446;-2.018;2022-12-07T13:34:37;101151.78;;;3.34;100.00
55679;BME280;41573;51.446;-2.018;2022-12-07T13:42:41;101123.66;;;3.36;100.00
55679;BME280;41573;51.446;-2.018;2022-12-07T13:45:40;101136.81;;;3.36;100.00
55679;BME280;41573;51.446;-2.018;2022-12-07T13:48:55;101118.72;;;3.21;100.00
55679;BME280;41573;51.446;-2.018;2022-12-07T13:51:25;101127.44;;;3.24;100.00
55679;BME280;41573;51.446;-2.018;2022-12-07T13:53:59;101132.94;;;3.12;100.00
55679;BME280;41573;51.446;-2.018;2022-12-07T13:56:32;101116.69;;;2.91;100.00
55679;BME280;41573;51.446;-2.018;2022-12-07T13:58:59;101108.03;;;2.86;100.00
55679;BME280;41573;51.446;-2.018;2022-12-07T14:01:25;101108.91;;;2.85;100.00
55679;BME280;41573;51.446;-2.018;2022-12-07T14:03:51;101108.16;;;2.80;100.00
55679;BME280;41573;51.446;-2.018;2022-12-07T14:06:27;101104.06;;;2.64;100.00
55679;BME280;41573;51.446;-2.018;2022-12-07T14:09:26;101105.22;;;2.50;100.00
55679;BME280;41573;51.446;-2.018;2022-12-07T14:11:54;101097.59;;;2.35;100.00
55679;BME280;41573;51.446;-2.018;2022-12-07T14:14:22;101106.44;;;2.31;100.00
55679;BME280;41573;51.446;-2.018;2022-12-07T14:16:58;101105.69;;;2.22;100.00
55679;BME280;41573;51.446;-2.018;2022-12-07T14:22:09;101092.03;;;2.00;100.00
55679;BME280;41573;51.446;-2.018;2022-12-07T14:24:43;101099.94;;;1.99;100.00
55679;BME280;41573;51.446;-2.018;2022-12-07T14:27:21;101086.84;;;1.97;100.00
55679;BME280;41573;51.446;-2.018;2022-12-07T14:29:47;101085.88;;;2.03;100.00
55679;BME280;41573;51.446;-2.018;2022-12-07T14:32:25;101082.19;;;2.13;100.00
55679;BME280;41573;51.446;-2.018;2022-12-07T14:35:10;101088.13;;;2.26;100.00
55679;BME280;41573;51.446;-2.018;2022-12-07T14:37:36;101090.59;;;2.34;100.00
55679;BME280;41573;51.446;-2.018;2022-12-07T14:40:03;101077.41;;;2.35;100.00
55679;BME280;41573;51.446;-2.018;2022-12-07T14:42:30;101080.84;;;2.40;100.00
55679;BME280;41573;51.446;-2.018;2022-12-07T14:44:56;101079.88;;;2.46;100.00
55679;BME280;41573;51.446;-2.018;2022-12-07T14:47:23;101085.81;;;2.56;100.00
55679;BME280;41573;51.446;-2.018;2022-12-07T14:49:49;101081.19;;;2.69;100.00
55679;BME280;41573;51.446;-2.018;2022-12-07T14:52:18;101080.94;;;2.81;100.00
55679;BME280;41573;51.446;-2.018;2022-12-07T14:54:44;101085.16;;;2.88;100.00
55679;BME280;41573;51.446;-2.018;2022-12-07T14:57:10;101076.50;;;2.83;100.00
55679;BME280;41573;51.446;-2.018;2022-12-07T14:59:36;101072.16;;;2.82;100.00
55679;BME280;41573;51.446;-2.018;2022-12-07T15:02:02;101060.09;;;2.72;100.00
55679;BME280;41573;51.446;-2.018;2022-12-07T15:04:28;101061.88;;;2.70;100.00
55679;BME280;41573;51.446;-2.018;2022-12-07T15:06:58;101064.66;;;2.62;100.00
55679;BME280;41573;51.446;-2.018;2022-12-07T15:09:24;101062.16;;;2.56;100.00
55679;BME280;41573;51.446;-2.018;2022-12-07T15:11:50;101056.22;;;2.46;100.00
55679;BME280;41573;51.446;-2.018;2022-12-07T15:14:15;101065.91;;;2.42;100.00
55679;BME280;41573;51.446;-2.018;2022-12-07T15:16:42;101059.84;;;2.39;100.00
55679;BME280;41573;51.446;-2.018;2022-12-07T15:19:13;101055.59;;;2.32;100.00
55679;BME280;41573;51.446;-2.018;2022-12-07T15:21:40;101058.41;;;2.21;100.00
55679;BME280;41573;51.446;-2.018;2022-12-07T15:24:06;101056.03;;;2.07;100.00
55679;BME280;41573;51.446;-2.018;2022-12-07T15:26:31;101047.47;;;1.96;100.00
55679;BME280;41573;51.446;-2.018;2022-12-07T15:28:57;101044.97;;;1.88;100.00
55679;BME280;41573;51.446;-2.018;2022-12-07T15:31:23;101064.34;;;1.81;100.00
55679;BME280;41573;51.446;-2.018;2022-12-07T15:33:49;101048.81;;;1.67;100.00
55679;BME280;41573;51.446;-2.018;2022-12-07T15:36:23;101055.00;;;1.63;100.00
55679;BME280;41573;51.446;-2.018;2022-12-07T15:38:49;101062.06;;;1.58;100.00
55679;BME280;41573;51.446;-2.018;2022-12-07T15:41:15;101063.09;;;1.49;100.00
55679;BME280;41573;51.446;-2.018;2022-12-07T15:43:40;101054.50;;;1.37;100.00
55679;BME280;41573;51.446;-2.018;2022-12-07T15:46:30;101062.41;;;1.36;100.00
55679;BME280;41573;51.446;-2.018;2022-12-07T15:48:56;101045.06;;;1.26;100.00
55679;BME280;41573;51.446;-2.018;2022-12-07T15:51:23;101060.81;;;1.26;100.00
55679;BME280;41573;51.446;-2.018;2022-12-07T15:53:50;101046.88;;;1.20;100.00
55679;BME280;41573;51.446;-2.018;2022-12-07T15:56:16;101043.47;;;1.12;100.00
55679;BME280;41573;51.446;-2.018;2022-12-07T15:58:41;101047.06;;;1.05;100.00
55679;BME280;41573;51.446;-2.018;2022-12-07T16:01:11;101047.97;;;1.04;100.00
55679;BME280;41573;51.446;-2.018;2022-12-07T16:03:37;101049.84;;;0.96;100.00
55679;BME280;41573;51.446;-2.018;2022-12-07T16:06:03;101049.00;;;0.91;100.00
55679;BME280;41573;51.446;-2.018;2022-12-07T16:08:28;101049.16;;;0.81;100.00
55679;BME280;41573;51.446;-2.018;2022-12-07T16:10:54;101050.94;;;0.76;100.00
55679;BME280;41573;51.446;-2.018;2022-12-07T16:13:19;101040.53;;;0.70;100.00
55679;BME280;41573;51.446;-2.018;2022-12-07T16:15:46;101049.28;;;0.69;100.00
55679;BME280;41573;51.446;-2.018;2022-12-07T16:18:11;101044.19;;;0.57;100.00
55679;BME280;41573;51.446;-2.018;2022-12-07T16:20:37;101054.66;;;0.60;100.00
55679;BME280;41573;51.446;-2.018;2022-12-07T16:23:03;101052.09;;;0.54;100.00
55679;BME280;41573;51.446;-2.018;2022-12-07T16:25:28;101064.34;;;0.51;100.00
55679;BME280;41573;51.446;-2.018;2022-12-07T16:27:54;101048.69;;;0.44;100.00
55679;BME280;41573;51.446;-2.018;2022-12-07T16:30:20;101058.31;;;0.43;100.00
55679;BME280;41573;51.446;-2.018;2022-12-07T16:32:46;101061.84;;;0.39;100.00
55679;BME280;41573;51.446;-2.018;2022-12-07T16:35:12;101052.31;;;0.33;100.00
55679;BME280;41573;51.446;-2.018;2022-12-07T16:37:38;101053.19;;;0.31;100.00
55679;BME280;41573;51.446;-2.018;2022-12-07T16:40:06;101053.22;;;0.28;100.00
55679;BME280;41573;51.446;-2.018;2022-12-07T16:42:33;101057.56;;;0.30;100.00
55679;BME280;41573;51.446;-2.018;2022-12-07T16:44:58;101048.03;;;0.25;100.00
55679;BME280;41573;51.446;-2.018;2022-12-07T16:47:24;101053.31;;;0.22;100.00
55679;BME280;41573;51.446;-2.018;2022-12-07T16:53:02;101055.91;;;0.22;100.00
55679;BME280;41573;51.446;-2.018;2022-12-07T16:55:31;101053.34;;;0.15;100.00
55679;BME280;41573;51.446;-2.018;2022-12-07T16:57:59;101049.84;;;0.16;100.00
55679;BME280;41573;51.446;-2.018;2022-12-07T17:00:25;101054.25;;;0.14;100.00
55679;BME280;41573;51.446;-2.018;2022-12-07T17:02:50;101043.81;;;0.08;100.00
55679;BME280;41573;51.446;-2.018;2022-12-07T17:05:16;101042.97;;;0.06;100.00
55679;BME280;41573;51.446;-2.018;2022-12-07T17:07:41;101049.94;;;0.07;100.00
55679;BME280;41573;51.446;-2.018;2022-12-07T17:10:10;101041.22;;;0.05;100.00
55679;BME280;41573;51.446;-2.018;2022-12-07T17:22:51;101032.56;;;-0.03;100.00
55679;BME280;41573;51.446;-2.018;2022-12-07T17:25:52;101036.94;;;-0.02;100.00
55679;BME280;41573;51.446;-2.018;2022-12-07T17:32:30;101029.09;;;-0.05;100.00
55679;BME280;41573;51.446;-2.018;2022-12-07T17:38:23;101024.78;;;-0.11;100.00
55679;BME280;41573;51.446;-2.018;2022-12-07T17:40:49;101019.56;;;-0.12;100.00
55679;BME280;41573;51.446;-2.018;2022-12-07T17:43:14;101016.97;;;-0.12;100.00
55679;BME280;41573;51.446;-2.018;2022-12-07T17:45:40;101011.75;;;-0.19;100.00
55679;BME280;41573;51.446;-2.018;2022-12-07T17:48:05;101010.00;;;-0.16;100.00
55679;BME280;41573;51.446;-2.018;2022-12-07T17:50:30;101010.03;;;-0.20;100.00
55679;BME280;41573;51.446;-2.018;2022-12-07T17:53:26;101013.47;;;-0.16;100.00
55679;BME280;41573;51.446;-2.018;2022-12-07T17:56:04;101013.50;;;-0.18;100.00
55679;BME280;41573;51.446;-2.018;2022-12-07T17:58:29;101014.44;;;-0.25;100.00
55679;BME280;41573;51.446;-2.018;2022-12-07T18:00:55;101011.00;;;-0.28;100.00
55679;BME280;41573;51.446;-2.018;2022-12-07T18:03:20;101011.84;;;-0.28;100.00
55679;BME280;41573;51.446;-2.018;2022-12-07T18:05:45;101006.69;;;-0.34;100.00
55679;BME280;41573;51.446;-2.018;2022-12-07T18:08:13;101015.38;;;-0.32;100.00
55679;BME280;41573;51.446;-2.018;2022-12-07T18:10:40;101005.78;;;-0.35;100.00
55679;BME280;41573;51.446;-2.018;2022-12-07T18:13:11;101011.94;;;-0.40;100.00
55679;BME280;41573;51.446;-2.018;2022-12-07T18:15:56;101011.03;;;-0.36;100.00
55679;BME280;41573;51.446;-2.018;2022-12-07T18:18:24;101024.13;;;-0.36;100.00
55679;BME280;41573;51.446;-2.018;2022-12-07T18:20:50;101011.91;;;-0.37;100.00
55679;BME280;41573;51.446;-2.018;2022-12-07T18:23:15;101018.91;;;-0.36;100.00
55679;BME280;41573;51.446;-2.018;2022-12-07T18:25:48;101011.06;;;-0.39;100.00
55679;BME280;41573;51.446;-2.018;2022-12-07T18:28:14;101019.78;;;-0.39;100.00